createdAt,value
2023-01-11T00:00:15.772Z,-145.52
2023-01-11T00:03:40.759Z,-145.52
2023-01-11T00:07:05.865Z,-145.52
2023-01-11T00:10:32.537Z,-145.52
2023-01-11T00:12:59.019Z,-145.52
2023-01-11T00:15:37.283Z,8.21
2023-01-11T00:18:03.881Z,8.65
2023-01-11T00:20:30.299Z,8.63
2023-01-11T00:22:56.808Z,8.70
2023-01-11T00:25:59.276Z,8.70
2023-01-11T00:28:25.716Z,8.78
2023-01-11T00:30:52.258Z,8.76
2023-01-11T00:34:18.846Z,-145.52
2023-01-11T00:37:43.839Z,-145.52
2023-01-11T00:41:11.008Z,-145.52
2023-01-11T00:44:36.011Z,-145.52
2023-01-11T00:47:02.485Z,8.86
2023-01-11T00:50:28.629Z,-145.52
2023-01-11T00:53:53.938Z,-145.52
2023-01-11T00:57:03.259Z,8.86
2023-01-11T00:59:29.721Z,9.00
2023-01-11T01:01:56.144Z,8.99
2023-01-11T01:04:22.707Z,-145.52
2023-01-11T01:06:49.574Z,-145.52
2023-01-11T01:09:16.071Z,-145.52
2023-01-11T01:11:43.927Z,-145.52
2023-01-11T01:14:11.713Z,-145.52
2023-01-11T01:16:38.241Z,-145.52
2023-01-11T01:19:04.705Z,-145.52
2023-01-11T01:22:29.682Z,-145.52
2023-01-11T01:25:54.629Z,-145.52
2023-01-11T01:29:20.939Z,-145.52
2023-01-11T01:32:45.904Z,-145.52
2023-01-11T01:36:10.855Z,-145.52
2023-01-11T01:39:35.837Z,-145.52
2023-01-11T01:43:00.765Z,-145.52
2023-01-11T01:46:27.826Z,-145.52
2023-01-11T01:49:54.797Z,-145.52
2023-01-11T01:53:21.630Z,-145.52
2023-01-11T01:56:50.420Z,-145.52
2023-01-11T02:00:15.716Z,-145.52
2023-01-11T02:02:44.857Z,-145.52
2023-01-11T02:05:12.199Z,-145.52
2023-01-11T02:07:40.929Z,-145.52
2023-01-11T02:10:11.058Z,-145.52
2023-01-11T02:12:41.885Z,-145.52
2023-01-11T02:16:08.853Z,-145.52
2023-01-11T02:19:54.497Z,-145.52
2023-01-11T02:24:01.849Z,-145.52
2023-01-11T02:28:02.841Z,-145.52
2023-01-11T02:31:35.474Z,-145.52
2023-01-11T02:35:15.433Z,-145.52
2023-01-11T02:38:46.023Z,-145.52
2023-01-11T02:42:23.842Z,-145.52
2023-01-11T02:45:46.565Z,-145.52
2023-01-11T02:49:21.377Z,-145.52
2023-01-11T02:52:55.235Z,-145.52
2023-01-11T02:56:24.488Z,-145.52
2023-01-11T02:59:50.802Z,-145.52
2023-01-11T03:03:17.840Z,-145.52
2023-01-11T03:06:46.036Z,-145.52
2023-01-11T03:10:23.748Z,-145.52
2023-01-11T03:14:02.284Z,-145.52
2023-01-11T03:17:39.505Z,-145.52
2023-01-11T03:21:15.644Z,-145.52
2023-01-11T03:24:46.053Z,-145.52
2023-01-11T03:28:22.284Z,-145.52
2023-01-11T03:31:50.802Z,-145.52
2023-01-11T03:35:25.739Z,-145.52
2023-01-11T03:38:56.344Z,-145.52
2023-01-11T03:42:25.899Z,-145.52
2023-01-11T03:45:55.130Z,-145.52
2023-01-11T03:49:25.771Z,-145.52
2023-01-11T03:52:52.588Z,-145.52
2023-01-11T03:56:20.764Z,-145.52
2023-01-11T03:59:45.816Z,-145.52
2023-01-11T04:03:14.313Z,-145.52
2023-01-11T04:06:42.514Z,-145.52
2023-01-11T04:10:08.108Z,-145.52
2023-01-11T04:13:33.040Z,-145.52
2023-01-11T04:16:58.177Z,-145.52
2023-01-11T04:19:30.845Z,8.99
2023-01-11T04:21:59.116Z,8.99
2023-01-11T04:24:26.716Z,-145.52
2023-01-11T04:27:51.735Z,-145.52
2023-01-11T04:31:16.701Z,-145.52
2023-01-11T04:33:43.145Z,10.87
2023-01-11T04:37:10.413Z,-145.52
2023-01-11T04:40:35.384Z,-145.52
2023-01-11T04:44:00.321Z,-145.52
2023-01-11T04:47:25.343Z,-145.52
2023-01-11T04:50:51.252Z,-145.52
2023-01-11T04:54:08.865Z,-145.52
2023-01-11T04:57:33.866Z,-145.52
2023-01-11T05:00:58.916Z,-145.52
2023-01-11T05:04:24.306Z,-145.52
2023-01-11T05:06:50.818Z,10.55
2023-01-11T05:09:19.429Z,10.55
2023-01-11T05:12:44.458Z,-145.52
2023-01-11T05:15:43.768Z,10.55
2023-01-11T05:18:10.211Z,10.85
2023-01-11T05:20:36.732Z,10.67
2023-01-11T05:23:03.189Z,10.59
2023-01-11T05:25:31.033Z,10.65
2023-01-11T05:28:57.220Z,-145.52
2023-01-11T05:32:22.208Z,-145.52
2023-01-11T05:35:47.253Z,-145.52
2023-01-11T05:39:12.635Z,-145.52
2023-01-11T05:41:40.805Z,10.65
2023-01-11T05:44:10.680Z,10.74
2023-01-11T05:46:38.879Z,10.72
2023-01-11T05:49:06.757Z,10.68
2023-01-11T05:51:33.930Z,10.75
2023-01-11T05:54:02.379Z,10.96
2023-01-11T05:56:29.421Z,10.89
2023-01-11T05:58:57.252Z,10.66
2023-01-11T06:01:25.488Z,10.81
2023-01-11T06:03:52.406Z,10.79
2023-01-11T06:07:18.450Z,-145.52
2023-01-11T06:09:44.899Z,10.79
2023-01-11T06:12:11.374Z,10.76
2023-01-11T06:14:39.265Z,10.78
2023-01-11T06:17:05.786Z,10.86
2023-01-11T06:19:32.274Z,10.85
2023-01-11T06:21:58.793Z,10.88
2023-01-11T06:24:25.255Z,10.85
2023-01-11T06:26:52.229Z,10.94
2023-01-11T06:29:18.842Z,10.90
2023-01-11T06:31:46.819Z,10.97
2023-01-11T06:34:13.323Z,11.03
2023-01-11T06:36:39.871Z,10.98
2023-01-11T06:39:06.319Z,10.89
2023-01-11T06:41:32.754Z,10.93
2023-01-11T06:43:59.766Z,11.02
2023-01-11T06:46:28.909Z,10.96
2023-01-11T06:48:57.130Z,11.11
2023-01-11T06:51:23.613Z,10.98
2023-01-11T06:53:50.114Z,11.02
2023-01-11T06:56:17.747Z,11.13
2023-01-11T06:58:46.836Z,11.17
2023-01-11T07:01:14.043Z,11.07
2023-01-11T07:03:40.667Z,11.26
2023-01-11T07:06:08.497Z,11.20
2023-01-11T07:08:34.936Z,11.13
2023-01-11T07:11:01.452Z,11.13
2023-01-11T07:13:27.915Z,11.08
2023-01-11T07:15:57.286Z,11.15
2023-01-11T07:18:23.751Z,11.18
2023-01-11T07:20:50.509Z,11.19
2023-01-11T07:23:18.311Z,10.97
2023-01-11T07:25:44.751Z,11.08
2023-01-11T07:28:11.219Z,11.19
2023-01-11T07:30:55.488Z,11.16
2023-01-11T07:33:23.310Z,11.07
2023-01-11T07:35:49.818Z,11.12
2023-01-11T07:38:17.702Z,11.15
2023-01-11T07:40:44.173Z,11.22
2023-01-11T07:43:13.116Z,11.14
2023-01-11T07:45:45.908Z,11.15
2023-01-11T07:48:13.533Z,11.24
2023-01-11T07:50:44.062Z,11.31
2023-01-11T07:53:11.149Z,11.36
2023-01-11T07:55:39.190Z,11.30
2023-01-11T07:58:05.788Z,11.13
2023-01-11T08:00:32.334Z,11.33
2023-01-11T08:03:00.807Z,11.31
2023-01-11T08:05:27.462Z,11.36
2023-01-11T08:07:53.918Z,11.39
2023-01-11T08:10:20.355Z,11.33
2023-01-11T08:12:51.473Z,11.43
2023-01-11T08:15:18.067Z,11.10
2023-01-11T08:17:44.632Z,11.25
2023-01-11T08:20:11.298Z,11.33
2023-01-11T08:22:37.739Z,11.40
2023-01-11T08:25:04.609Z,11.28
2023-01-11T08:27:31.076Z,11.31
2023-01-11T08:29:58.876Z,11.17
2023-01-11T08:32:27.736Z,11.32
2023-01-11T08:34:54.172Z,11.39
2023-01-11T08:37:20.609Z,11.22
2023-01-11T08:39:47.074Z,11.34
2023-01-11T08:42:13.554Z,11.12
2023-01-11T08:44:39.998Z,11.32
2023-01-11T08:47:07.784Z,11.18
2023-01-11T08:49:34.205Z,11.15
2023-01-11T08:52:00.718Z,11.35
2023-01-11T08:54:27.211Z,11.12
2023-01-11T08:56:54.821Z,11.37
2023-01-11T08:59:21.306Z,11.34
2023-01-11T09:01:47.838Z,11.29
2023-01-11T09:04:24.664Z,11.12
2023-01-11T09:06:52.144Z,11.13
2023-01-11T09:09:18.565Z,11.25
2023-01-11T09:11:45.021Z,11.07
2023-01-11T09:14:11.469Z,11.22
2023-01-11T09:16:37.929Z,11.31
2023-01-11T09:19:04.436Z,11.24
2023-01-11T09:21:33.333Z,11.25
2023-01-11T09:23:59.824Z,11.21
2023-01-11T09:26:26.341Z,11.25
2023-01-11T09:28:52.858Z,11.15
2023-01-11T09:31:19.307Z,11.27
2023-01-11T09:33:45.803Z,11.31
2023-01-11T09:36:12.387Z,11.38
2023-01-11T09:38:40.356Z,11.37
2023-01-11T09:41:21.389Z,11.13
2023-01-11T09:43:52.434Z,11.10
2023-01-11T09:46:19.528Z,10.94
2023-01-11T09:48:50.699Z,10.88
2023-01-11T09:51:17.559Z,11.02
2023-01-11T09:53:47.857Z,11.05
2023-01-11T09:56:16.487Z,10.96
2023-01-11T09:58:55.908Z,11.03
2023-01-11T10:01:27.886Z,10.84
2023-01-11T10:04:19.388Z,10.81
2023-01-11T10:06:59.091Z,10.70
2023-01-11T10:18:25.374Z,10.96
2023-01-11T10:18:49.341Z,10.84
2023-01-11T10:21:19.625Z,10.83
2023-01-11T10:23:49.890Z,10.78
2023-01-11T10:26:24.503Z,10.93
2023-01-11T10:28:55.196Z,10.88
2023-01-11T10:31:22.747Z,10.91
2023-01-11T10:33:52.661Z,10.78
2023-01-11T10:36:26.312Z,10.96
2023-01-11T10:38:59.121Z,10.79
2023-01-11T10:41:32.770Z,10.95
2023-01-11T10:44:13.063Z,10.94
2023-01-11T10:46:44.085Z,10.83
2023-01-11T10:49:25.359Z,10.80
2023-01-11T10:51:55.258Z,10.94
2023-01-11T10:54:27.965Z,11.08
2023-01-11T10:57:07.211Z,11.58
2023-01-11T10:59:48.833Z,11.54
2023-01-11T11:02:39.976Z,11.56
2023-01-11T11:05:18.987Z,11.24
2023-01-11T11:07:53.994Z,11.00
2023-01-11T11:10:28.957Z,10.93
2023-01-11T11:13:08.039Z,10.91
2023-01-11T11:15:37.956Z,10.93
2023-01-11T11:18:04.994Z,10.88
2023-01-11T11:20:33.410Z,10.82
2023-01-11T11:23:00.804Z,10.73
2023-01-11T11:25:31.030Z,10.94
2023-01-11T11:28:03.358Z,10.97
2023-01-11T11:30:33.191Z,10.89
2023-01-11T11:33:01.998Z,10.48
2023-01-11T11:35:35.644Z,10.70
2023-01-11T11:38:02.520Z,10.71
2023-01-11T11:40:38.862Z,10.85
2023-01-11T11:43:19.439Z,10.90
2023-01-11T11:45:54.742Z,10.76
2023-01-11T11:48:22.644Z,10.68
2023-01-11T11:50:50.382Z,10.77
2023-01-11T11:53:35.636Z,11.00
2023-01-11T11:56:17.852Z,10.99
2023-01-11T11:58:46.851Z,11.27
2023-01-11T12:01:22.212Z,11.11
2023-01-11T12:03:50.698Z,11.16
2023-01-11T12:06:23.126Z,11.09
2023-01-11T12:08:50.021Z,11.11
2023-01-11T12:11:20.231Z,11.03
2023-01-11T12:14:00.836Z,10.77
2023-01-11T12:16:33.811Z,10.70
2023-01-11T12:19:00.388Z,10.86
2023-01-11T12:21:27.779Z,10.65
2023-01-11T12:24:09.792Z,10.80
2023-01-11T12:26:40.681Z,10.72
2023-01-11T12:29:30.371Z,10.90
2023-01-11T12:32:33.042Z,10.96
2023-01-11T12:35:17.964Z,10.86
2023-01-11T12:38:18.002Z,10.79
2023-01-11T12:40:55.323Z,10.51
2023-01-11T12:43:37.416Z,10.82
2023-01-11T12:46:14.589Z,10.84
2023-01-11T12:49:13.561Z,10.82
2023-01-11T12:51:49.076Z,10.76
2023-01-11T12:54:26.250Z,10.89
2023-01-11T12:57:20.928Z,10.93
2023-01-11T13:00:09.440Z,10.98
2023-01-11T13:03:10.019Z,11.00
2023-01-11T13:05:47.371Z,10.78
2023-01-11T13:08:21.657Z,10.63
2023-01-11T13:10:59.711Z,10.63
2023-01-11T13:13:33.625Z,10.48
2023-01-11T13:16:08.713Z,10.60
2023-01-11T13:18:44.506Z,10.52
2023-01-11T13:21:20.733Z,10.51
2023-01-11T13:23:50.761Z,10.55
2023-01-11T13:26:23.163Z,10.59
2023-01-11T13:28:54.626Z,10.50
2023-01-11T13:31:22.636Z,10.76
2023-01-11T13:33:57.043Z,10.55
2023-01-11T13:36:28.700Z,10.43
2023-01-11T13:39:00.427Z,10.26
2023-01-11T13:41:33.177Z,10.37
2023-01-11T13:44:05.421Z,10.21
2023-01-11T13:46:55.137Z,10.16
2023-01-11T13:49:40.109Z,10.40
2023-01-11T13:52:12.144Z,10.28
2023-01-11T13:54:45.526Z,10.30
2023-01-11T13:57:30.249Z,10.24
2023-01-11T14:00:03.079Z,10.32
2023-01-11T14:02:42.241Z,10.21
2023-01-11T14:05:15.180Z,10.17
2023-01-11T14:07:57.188Z,10.18
2023-01-11T14:10:38.575Z,10.17
2023-01-11T14:13:24.874Z,10.14
2023-01-11T14:15:59.170Z,10.10
2023-01-11T14:18:33.532Z,10.18
2023-01-11T14:21:11.665Z,10.21
2023-01-11T14:23:46.673Z,10.10
2023-01-11T14:26:44.885Z,10.09
2023-01-11T14:29:43.185Z,10.11
2023-01-11T14:32:43.631Z,10.12
2023-01-11T14:35:44.043Z,10.19
2023-01-11T14:38:37.378Z,10.16
2023-01-11T14:41:36.087Z,10.16
2023-01-11T14:44:17.674Z,10.22
2023-01-11T14:47:09.712Z,10.20
2023-01-11T14:49:53.236Z,10.09
2023-01-11T14:52:34.567Z,10.17
2023-01-11T14:55:13.989Z,10.18
2023-01-11T14:57:42.938Z,10.20
2023-01-11T15:00:58.595Z,10.19
2023-01-11T15:03:34.698Z,10.07
2023-01-11T15:06:09.661Z,10.21
2023-01-11T15:08:43.106Z,10.18
2023-01-11T15:11:25.061Z,10.11
2023-01-11T15:14:05.573Z,10.13
2023-01-11T15:16:35.216Z,10.11
2023-01-11T15:19:04.593Z,9.97
2023-01-11T15:21:35.736Z,10.02
2023-01-11T15:24:02.490Z,9.90
2023-01-11T15:26:30.372Z,9.68
2023-01-11T15:28:59.333Z,9.83
2023-01-11T15:31:34.159Z,9.79
2023-01-11T15:34:03.789Z,9.62
2023-01-11T15:37:08.636Z,9.63
2023-01-11T15:39:42.259Z,9.49
2023-01-11T15:42:32.678Z,9.69
2023-01-11T15:45:28.004Z,9.41
2023-01-11T15:48:19.848Z,9.58
2023-01-11T15:51:01.984Z,9.54
2023-01-11T15:53:54.350Z,9.45
2023-01-11T15:56:43.328Z,9.46
2023-01-11T15:59:33.190Z,9.42
2023-01-11T16:02:34.587Z,9.39
2023-01-11T16:05:14.490Z,9.49
2023-01-11T16:07:47.042Z,9.40
2023-01-11T16:10:35.693Z,9.38
2023-01-11T16:13:21.681Z,9.45
2023-01-11T16:16:05.675Z,9.42
2023-01-11T16:18:37.711Z,9.41
2023-01-11T16:21:09.989Z,9.58
2023-01-11T16:23:36.922Z,9.64
2023-01-11T16:26:03.610Z,9.68
2023-01-11T16:28:30.239Z,9.63
2023-01-11T16:31:01.626Z,9.45
2023-01-11T16:33:30.457Z,9.64
2023-01-11T16:36:09.879Z,9.66
2023-01-11T16:38:55.412Z,9.57
2023-01-11T16:41:24.845Z,9.49
2023-01-11T16:43:59.012Z,9.53
2023-01-11T16:47:08.391Z,9.42
2023-01-11T16:49:36.364Z,9.51
2023-01-11T16:52:36.448Z,9.62
2023-01-11T16:55:14.633Z,9.37
2023-01-11T16:57:44.525Z,9.31
2023-01-11T17:00:20.919Z,9.19
2023-01-11T17:02:47.470Z,9.30
2023-01-11T17:05:19.768Z,9.35
2023-01-11T17:07:46.256Z,9.25
2023-01-11T17:10:20.284Z,9.30
2023-01-11T17:12:51.929Z,9.21
2023-01-11T17:15:23.399Z,9.25
2023-01-11T17:17:50.647Z,9.04
2023-01-11T17:20:21.636Z,9.27
2023-01-11T17:22:50.670Z,9.16
2023-01-11T17:25:18.680Z,9.28
2023-01-11T17:27:49.208Z,9.15
2023-01-11T17:30:19.522Z,9.20
2023-01-11T17:32:49.572Z,9.04
2023-01-11T17:35:17.955Z,9.07
2023-01-11T17:37:47.988Z,8.92
2023-01-11T17:40:21.777Z,8.96
2023-01-11T17:42:49.137Z,8.93
2023-01-11T17:45:21.184Z,8.92
2023-01-11T17:47:49.987Z,8.89
2023-01-11T17:50:20.627Z,8.81
2023-01-11T17:52:54.832Z,8.69
2023-01-11T17:55:24.024Z,8.70
2023-01-11T17:58:10.883Z,8.61
2023-01-11T18:00:37.454Z,8.62
2023-01-11T18:03:09.845Z,8.56
2023-01-11T18:05:38.591Z,8.50
2023-01-11T18:08:17.755Z,8.50
2023-01-11T18:10:50.695Z,8.41
2023-01-11T18:13:24.261Z,8.35
2023-01-11T18:15:50.917Z,8.38
2023-01-11T18:18:39.796Z,8.51
2023-01-11T18:21:37.149Z,8.39
2023-01-11T18:24:40.469Z,8.48
2023-01-11T18:27:23.369Z,8.46
2023-01-11T18:29:51.579Z,8.43
2023-01-11T18:32:18.378Z,8.42
2023-01-11T18:34:48.105Z,8.51
2023-01-11T18:37:14.767Z,8.52
2023-01-11T18:39:42.604Z,8.32
2023-01-11T18:42:15.414Z,8.38
2023-01-11T18:44:44.165Z,8.57
2023-01-11T18:47:17.187Z,8.41
2023-01-11T18:49:44.379Z,8.41
2023-01-11T18:52:11.521Z,8.53
2023-01-11T18:54:38.309Z,8.35
2023-01-11T18:57:06.316Z,8.43
2023-01-11T18:59:33.012Z,8.56
2023-01-11T19:02:16.012Z,8.47
2023-01-11T19:04:43.630Z,8.42
2023-01-11T19:07:10.476Z,8.45
2023-01-11T19:09:37.070Z,8.50
2023-01-11T19:12:04.419Z,8.52
2023-01-11T19:14:32.481Z,8.41
2023-01-11T19:16:59.090Z,8.50
2023-01-11T19:19:25.611Z,8.70
2023-01-11T19:21:52.083Z,8.52
2023-01-11T19:24:18.537Z,8.50
2023-01-11T19:26:45.072Z,8.48
2023-01-11T19:29:11.604Z,8.46
2023-01-11T19:31:39.434Z,8.50
2023-01-11T19:34:06.000Z,8.59
2023-01-11T19:36:32.462Z,8.58
2023-01-11T19:38:59.074Z,8.49
2023-01-11T19:41:25.721Z,8.63
2023-01-11T19:43:52.810Z,8.62
2023-01-11T19:46:30.672Z,8.68
2023-01-11T19:48:59.679Z,8.62
2023-01-11T19:51:26.150Z,8.58
2023-01-11T19:53:53.527Z,8.61
2023-01-11T19:56:20.182Z,8.69
2023-01-11T19:58:46.652Z,8.66
2023-01-11T20:01:13.379Z,8.77
2023-01-11T20:03:40.056Z,8.74
2023-01-11T20:06:08.497Z,8.79
2023-01-11T20:08:35.797Z,8.79
2023-01-11T20:11:04.959Z,8.76
2023-01-11T20:13:31.283Z,8.67
2023-01-11T20:15:57.720Z,8.67
2023-01-11T20:18:24.253Z,8.72
2023-01-11T20:20:54.813Z,8.65
2023-01-11T20:23:23.061Z,8.62
2023-01-11T20:25:49.630Z,8.69
2023-01-11T20:28:16.058Z,8.69
2023-01-11T20:30:42.528Z,8.72
2023-01-11T20:33:09.069Z,8.83
2023-01-11T20:35:36.874Z,8.86
2023-01-11T20:38:03.340Z,8.87
2023-01-11T20:40:31.116Z,8.91
2023-01-11T20:42:57.649Z,8.99
2023-01-11T20:45:24.115Z,8.80
2023-01-11T20:47:50.552Z,8.96
2023-01-11T20:50:17.177Z,8.87
2023-01-11T20:52:43.638Z,9.00
2023-01-11T20:55:10.134Z,8.98
2023-01-11T20:57:37.938Z,8.80
2023-01-11T21:00:05.583Z,9.05
2023-01-11T21:02:32.162Z,9.07
2023-01-11T21:04:58.662Z,8.87
2023-01-11T21:07:25.150Z,9.04
2023-01-11T21:09:51.628Z,9.10
2023-01-11T21:12:18.204Z,9.05
2023-01-11T21:14:46.099Z,9.15
2023-01-11T21:17:12.555Z,8.85
2023-01-11T21:19:39.104Z,9.16
2023-01-11T21:22:06.009Z,9.20
2023-01-11T21:24:32.503Z,9.24
2023-01-11T21:26:58.982Z,9.21
2023-01-11T21:29:28.227Z,9.35
2023-01-11T21:31:55.957Z,9.28
2023-01-11T21:34:22.728Z,9.35
2023-01-11T21:36:49.186Z,9.36
2023-01-11T21:39:16.869Z,9.34
2023-01-11T21:41:43.888Z,9.30
2023-01-11T21:44:11.575Z,9.29
2023-01-11T21:46:39.021Z,9.47
2023-01-11T21:49:07.534Z,9.47
2023-01-11T21:51:34.480Z,9.62
2023-01-11T21:54:03.974Z,9.45
2023-01-11T21:56:30.429Z,9.42
2023-01-11T21:58:56.957Z,9.41
2023-01-11T22:01:23.492Z,9.37
2023-01-11T22:03:50.055Z,9.43
2023-01-11T22:06:18.009Z,9.45
2023-01-11T22:08:45.320Z,9.49
2023-01-11T22:11:13.499Z,9.39
2023-01-11T22:13:39.982Z,9.50
2023-01-11T22:16:08.695Z,9.23
2023-01-11T22:18:35.703Z,9.29
2023-01-11T22:21:04.927Z,9.35
2023-01-11T22:23:32.652Z,9.38
2023-01-11T22:26:02.999Z,9.26
2023-01-11T22:28:29.427Z,9.30
2023-01-11T22:31:02.890Z,9.21
2023-01-11T22:33:29.491Z,9.34
2023-01-11T22:35:55.974Z,9.34
2023-01-11T22:38:22.505Z,9.28
2023-01-11T22:40:50.298Z,9.35
2023-01-11T22:43:16.763Z,9.41
2023-01-11T22:45:43.247Z,9.18
2023-01-11T22:48:09.693Z,9.25
2023-01-11T22:50:38.052Z,9.09
2023-01-11T22:53:04.603Z,9.25
2023-01-11T22:55:33.161Z,9.29
2023-01-11T22:58:01.010Z,9.20
2023-01-11T23:00:27.572Z,9.17
2023-01-11T23:02:56.243Z,9.22
2023-01-11T23:05:22.860Z,9.29
2023-01-11T23:07:49.317Z,9.34
2023-01-11T23:10:16.352Z,9.32
2023-01-11T23:12:42.888Z,9.52
2023-01-11T23:15:11.037Z,9.34
2023-01-11T23:17:37.492Z,9.47
2023-01-11T23:20:04.554Z,9.48
2023-01-11T23:22:30.979Z,9.40
2023-01-11T23:24:57.408Z,9.58
2023-01-11T23:27:23.868Z,9.45
2023-01-11T23:29:50.308Z,9.46
2023-01-11T23:32:18.166Z,9.41
2023-01-11T23:34:44.652Z,9.37
2023-01-11T23:37:11.182Z,9.32
2023-01-11T23:39:37.632Z,9.48
2023-01-11T23:42:04.377Z,9.47
2023-01-11T23:44:31.132Z,9.50
2023-01-11T23:46:57.591Z,9.57
2023-01-11T23:49:26.351Z,9.36
2023-01-11T23:51:53.740Z,9.35
2023-01-11T23:54:20.352Z,9.34
2023-01-11T23:56:46.980Z,9.53
2023-01-11T23:59:13.679Z,9.48
